Time;durP1;ratioP1;P1;durP2;ratioP2;P2;SDS_P1;SDS_P2;PMS_P1;PMS_P2;Temp;Humidity;BMP_temperature;BMP_pressure;BME280_temperature;BME280_humidity;BME280_pressure;Samples;Min_cycle;Max_cycle;Signal;HPM_P1;HPM_P2
2024/01/08 00:01:16;;;;;;;2.22;1.60;;;20.20;53.80;;;;;;5038447;28;20056;-67
2024/01/08 00:03:41;;;;;;;3.63;1.50;;;20.20;54.30;;;;;;5041109;28;20084;-65
2024/01/08 00:06:07;;;;;;;2.67;1.40;;;20.20;53.80;;;;;;5041959;28;20033;-65
2024/01/08 00:08:33;;;;;;;2.10;1.42;;;20.20;53.70;;;;;;5040245;28;20038;-65
2024/01/08 00:10:58;;;;;;;1.85;1.23;;;20.20;54.20;;;;;;5038991;28;20061;-66
2024/01/08 00:13:24;;;;;;;2.00;1.25;;;20.20;53.70;;;;;;5039844;28;20476;-66
2024/01/08 00:15:49;;;;;;;2.72;1.27;;;20.20;53.70;;;;;;5036923;28;20020;-64
2024/01/08 00:18:16;;;;;;;2.10;1.23;;;20.20;53.70;;;;;;5039210;28;20507;-66
2024/01/08 00:20:42;;;;;;;2.40;1.35;;;20.20;53.70;;;;;;5040477;28;20393;-65
2024/01/08 00:23:08;;;;;;;2.10;1.30;;;20.20;53.70;;;;;;5040119;28;20424;-71
2024/01/08 00:25:34;;;;;;;1.90;1.23;;;20.20;54.20;;;;;;5039390;28;20028;-70
2024/01/08 00:28:00;;;;;;;2.28;1.20;;;20.20;53.70;;;;;;5039186;28;20456;-70
2024/01/08 00:30:26;;;;;;;2.55;1.55;;;20.10;53.60;;;;;;5037243;28;20576;-70
2024/01/08 00:32:52;;;;;;;2.65;1.48;;;20.10;53.50;;;;;;5038364;28;20104;-69
2024/01/08 00:35:17;;;;;;;2.22;1.30;;;20.10;53.50;;;;;;5036999;28;20370;-69
2024/01/08 00:37:43;;;;;;;1.80;1.20;;;20.10;53.50;;;;;;5037763;28;20041;-70
2024/01/08 00:40:10;;;;;;;2.45;1.30;;;20.10;53.50;;;;;;5037052;28;20029;-70
2024/01/08 00:42:37;;;;;;;2.63;1.40;;;20.10;53.50;;;;;;5038312;28;20032;-70
2024/01/08 00:45:06;;;;;;;2.30;1.27;;;20.10;53.50;;;;;;5038113;28;20063;-70
2024/01/08 00:47:32;;;;;;;2.28;1.20;;;20.10;53.40;;;;;;5036596;28;20150;-70
2024/01/08 00:49:58;;;;;;;2.33;1.42;;;20.10;53.40;;;;;;5038767;28;20025;-69
2024/01/08 00:52:24;;;;;;;2.17;1.27;;;20.10;53.40;;;;;;5038267;28;20455;-70
2024/01/08 00:54:49;;;;;;;1.70;1.20;;;20.10;53.90;;;;;;5039128;28;20036;-69
2024/01/08 00:57:15;;;;;;;2.00;1.27;;;20.00;53.30;;;;;;5039767;28;20037;-69
2024/01/08 00:59:40;;;;;;;1.92;1.20;;;20.00;53.30;;;;;;5038933;28;20029;-68
2024/01/08 01:02:06;;;;;;;1.90;1.30;;;20.00;53.30;;;;;;5034839;28;20029;-67
2024/01/08 01:04:32;;;;;;;1.90;1.27;;;20.00;53.30;;;;;;5037319;28;20029;-67
2024/01/08 01:06:57;;;;;;;2.97;1.23;;;20.00;53.20;;;;;;5038045;28;20021;-67
2024/01/08 01:09:23;;;;;;;2.25;1.20;;;20.00;53.20;;;;;;5037380;28;20088;-67
2024/01/08 01:11:49;;;;;;;1.65;1.05;;;20.00;53.20;;;;;;5037902;28;20497;-67
2024/01/08 01:14:14;;;;;;;2.08;1.30;;;20.00;53.20;;;;;;5037129;28;20029;-69
2024/01/08 01:16:40;;;;;;;2.38;1.40;;;20.00;53.20;;;;;;5036841;28;20021;-69
2024/01/08 01:19:06;;;;;;;1.75;1.00;;;20.00;53.10;;;;;;5039142;28;20032;-69
2024/01/08 01:21:31;;;;;;;1.70;1.13;;;20.00;53.10;;;;;;5036915;28;20051;-68
2024/01/08 01:23:57;;;;;;;1.98;1.15;;;19.90;53.10;;;;;;5039342;28;20053;-68
2024/01/08 01:26:22;;;;;;;1.90;1.20;;;19.90;53.00;;;;;;5039782;28;20424;-69
2024/01/08 01:28:48;;;;;;;1.75;1.10;;;19.90;53.00;;;;;;5040647;28;20021;-68
2024/01/08 01:31:14;;;;;;;1.48;0.98;;;19.90;53.20;;;;;;5035339;28;20033;-68
2024/01/08 01:33:40;;;;;;;2.17;1.23;;;19.90;53.00;;;;;;5035095;28;20107;-65
2024/01/08 01:36:06;;;;;;;1.60;1.10;;;19.90;53.00;;;;;;5036382;28;20385;-65
2024/01/08 01:38:32;;;;;;;1.52;1.02;;;19.90;53.00;;;;;;5037252;28;20030;-65
2024/01/08 01:40:58;;;;;;;2.10;1.30;;;19.90;53.00;;;;;;5033923;28;20040;-66
2024/01/08 01:43:25;;;;;;;1.98;1.20;;;19.90;53.00;;;;;;5036547;28;20108;-65
2024/01/08 01:45:53;;;;;;;1.73;1.10;;;19.90;53.00;;;;;;5036155;28;20032;-65
2024/01/08 01:48:19;;;;;;;1.48;0.95;;;19.80;52.90;;;;;;5037634;28;20038;-66
2024/01/08 01:50:45;;;;;;;1.50;1.00;;;19.80;52.90;;;;;;5038751;28;20047;-65
2024/01/08 01:53:11;;;;;;;1.83;1.10;;;19.80;52.90;;;;;;5035864;28;20120;-66
2024/01/08 01:55:37;;;;;;;1.42;1.00;;;19.80;52.90;;;;;;5037355;28;20120;-65
2024/01/08 01:58:03;;;;;;;1.85;1.10;;;19.80;52.90;;;;;;5037571;28;20025;-65
2024/01/08 02:00:29;;;;;;;1.38;1.08;;;19.80;52.90;;;;;;5039684;28;20030;-65
2024/01/08 02:02:55;;;;;;;1.60;0.98;;;19.80;52.90;;;;;;5035794;28;20025;-66
2024/01/08 02:05:20;;;;;;;1.30;0.95;;;19.80;52.90;;;;;;5035922;28;20032;-65
2024/01/08 02:07:48;;;;;;;1.30;1.00;;;19.70;52.80;;;;;;5038510;28;20539;-64
2024/01/08 02:10:13;;;;;;;1.63;1.00;;;19.80;52.80;;;;;;5037816;28;20041;-65
2024/01/08 02:12:39;;;;;;;1.23;1.00;;;19.80;52.80;;;;;;5039540;28;20021;-64
2024/01/08 02:15:05;;;;;;;1.40;1.00;;;19.80;52.80;;;;;;5039236;28;20367;-64
2024/01/08 02:17:31;;;;;;;1.45;0.90;;;19.80;52.80;;;;;;5037818;28;20041;-66
2024/01/08 02:19:56;;;;;;;1.45;1.00;;;19.70;52.80;;;;;;5038584;28;20115;-65
2024/01/08 02:22:22;;;;;;;2.17;1.00;;;19.70;52.70;;;;;;5041474;28;20029;-67
2024/01/08 02:24:48;;;;;;;1.35;0.90;;;19.70;52.80;;;;;;5041342;28;20025;-68
2024/01/08 02:27:14;;;;;;;1.45;0.95;;;19.70;52.70;;;;;;5042022;28;20524;-68
2024/01/08 02:29:40;;;;;;;1.40;1.02;;;19.70;52.80;;;;;;5043034;28;20029;-68
2024/01/08 02:32:07;;;;;;;1.35;0.85;;;19.70;53.20;;;;;;5039404;28;20048;-69
2024/01/08 02:34:32;;;;;;;1.65;1.10;;;19.70;52.70;;;;;;5039708;28;20496;-68
2024/01/08 02:36:58;;;;;;;1.52;0.90;;;19.70;52.70;;;;;;5034731;28;20029;-69
2024/01/08 02:39:24;;;;;;;1.80;0.93;;;19.70;52.70;;;;;;5039981;28;20458;-69
2024/01/08 02:41:50;;;;;;;1.40;0.90;;;19.70;52.70;;;;;;5041065;28;20050;-68
2024/01/08 02:44:15;;;;;;;1.63;0.90;;;19.70;52.70;;;;;;5040283;28;20033;-68
2024/01/08 02:46:41;;;;;;;1.73;1.00;;;19.60;52.60;;;;;;5037555;28;20025;-68
2024/01/08 02:49:06;;;;;;;1.27;0.90;;;19.60;52.60;;;;;;5040125;28;20522;-68
2024/01/08 02:51:32;;;;;;;1.60;1.00;;;19.70;52.70;;;;;;5039492;28;20030;-68
2024/01/08 02:53:57;;;;;;;1.23;0.90;;;19.60;52.60;;;;;;5040427;28;20124;-69
2024/01/08 02:56:24;;;;;;;1.30;1.00;;;19.60;52.60;;;;;;5038544;28;20044;-68
2024/01/08 02:58:50;;;;;;;1.45;0.93;;;19.60;52.60;;;;;;5040540;28;20097;-68
2024/01/08 03:01:16;;;;;;;1.23;0.82;;;19.60;52.60;;;;;;5040173;28;20092;-68
2024/01/08 03:03:42;;;;;;;1.17;0.88;;;19.60;53.20;;;;;;5036563;28;20452;-68
2024/01/08 03:06:07;;;;;;;1.70;0.95;;;19.60;52.70;;;;;;5040270;28;20037;-68
2024/01/08 03:08:33;;;;;;;1.10;0.98;;;19.60;52.60;;;;;;5039542;28;20095;-68
2024/01/08 03:10:59;;;;;;;1.20;0.90;;;19.60;52.60;;;;;;5041530;28;20040;-69
2024/01/08 03:13:24;;;;;;;1.10;0.90;;;19.60;52.70;;;;;;5038297;28;20033;-69
2024/01/08 03:15:50;;;;;;;1.05;0.80;;;19.60;52.70;;;;;;5038982;28;20026;-68
2024/01/08 03:18:15;;;;;;;1.50;0.90;;;19.60;52.70;;;;;;5037919;28;20032;-68
2024/01/08 03:20:41;;;;;;;1.05;0.80;;;19.50;52.60;;;;;;5039358;28;20476;-68
2024/01/08 03:23:09;;;;;;;1.52;0.90;;;19.50;52.60;;;;;;5038359;28;20021;-68
2024/01/08 03:25:35;;;;;;;1.25;0.82;;;19.50;52.60;;;;;;5040956;28;20830;-67
2024/01/08 03:28:01;;;;;;;1.38;0.93;;;19.50;52.60;;;;;;5038703;28;20025;-67
2024/01/08 03:30:26;;;;;;;0.95;0.70;;;19.50;52.60;;;;;;5040862;28;20037;-67
2024/01/08 03:32:52;;;;;;;1.33;0.88;;;19.50;52.70;;;;;;5036006;28;20032;-67
2024/01/08 03:35:20;;;;;;;1.40;1.00;;;19.50;52.60;;;;;;5040123;28;20156;-69
2024/01/08 03:37:46;;;;;;;1.08;0.80;;;19.50;52.70;;;;;;5039953;28;20099;-69
2024/01/08 03:40:12;;;;;;;1.10;0.80;;;19.50;52.60;;;;;;5039314;28;20104;-69
2024/01/08 03:42:38;;;;;;;0.98;0.77;;;19.50;52.70;;;;;;5040834;28;20025;-69
2024/01/08 03:45:04;;;;;;;1.30;1.05;;;19.50;52.60;;;;;;5039654;28;20034;-69
2024/01/08 03:47:29;;;;;;;1.00;0.80;;;19.50;52.70;;;;;;5052809;28;20055;-69
2024/01/08 03:49:55;;;;;;;1.40;0.82;;;19.50;52.70;;;;;;5038950;28;20057;-69
2024/01/08 03:52:22;;;;;;;1.08;0.77;;;19.40;52.60;;;;;;5040554;28;20128;-69
2024/01/08 03:54:48;;;;;;;0.77;0.70;;;19.50;52.70;;;;;;5040738;28;20048;-66
2024/01/08 03:57:14;;;;;;;0.82;0.80;;;19.40;52.60;;;;;;5040144;28;20103;-66
2024/01/08 03:59:42;;;;;;;1.10;0.80;;;19.40;52.70;;;;;;5040840;28;20030;-67
2024/01/08 04:02:08;;;;;;;0.80;0.77;;;19.40;52.70;;;;;;5036789;28;20044;-67
2024/01/08 04:04:33;;;;;;;1.80;0.80;;;19.40;52.70;;;;;;5039593;28;20088;-67
2024/01/08 04:06:59;;;;;;;1.02;0.85;;;19.40;52.70;;;;;;5042096;28;20021;-66
2024/01/08 04:09:25;;;;;;;1.08;0.80;;;19.40;52.70;;;;;;5040137;28;20083;-66
2024/01/08 04:11:51;;;;;;;1.40;0.90;;;19.40;52.70;;;;;;5035833;28;20103;-67
2024/01/08 04:14:17;;;;;;;1.45;0.90;;;19.40;52.70;;;;;;5055456;28;20044;-67
2024/01/08 04:16:43;;;;;;;1.08;0.90;;;19.40;52.80;;;;;;5041437;28;20029;-68
2024/01/08 04:19:08;;;;;;;1.10;0.82;;;19.40;52.70;;;;;;5035247;28;20025;-66
2024/01/08 04:21:34;;;;;;;0.90;0.77;;;19.40;52.70;;;;;;5036423;28;20033;-67
2024/01/08 04:23:59;;;;;;;1.00;0.80;;;19.40;52.70;;;;;;5037907;28;20075;-67
2024/01/08 04:26:25;;;;;;;1.35;0.90;;;19.40;52.70;;;;;;5041244;28;20112;-66
2024/01/08 04:28:52;;;;;;;0.95;0.75;;;19.40;52.80;;;;;;5039849;28;20424;-66
2024/01/08 04:31:21;;;;;;;1.20;0.90;;;19.40;52.80;;;;;;5038025;28;20025;-66
2024/01/08 04:33:48;;;;;;;0.93;0.80;;;19.40;52.70;;;;;;5034669;28;20091;-69
2024/01/08 04:36:14;;;;;;;1.08;0.80;;;19.40;52.80;;;;;;5038231;28;20044;-69
2024/01/08 04:38:40;;;;;;;0.98;0.73;;;19.40;52.80;;;;;;5037440;28;20116;-69
2024/01/08 04:41:19;;;;;;;1.10;0.85;;;19.40;52.70;;;;;;5036977;28;20413;-69
2024/01/08 04:43:45;;;;;;;1.25;0.90;;;19.40;52.70;;;;;;5041623;28;20029;-69
2024/01/08 04:46:11;;;;;;;1.13;0.80;;;19.40;52.80;;;;;;5036174;28;20366;-70
2024/01/08 04:48:36;;;;;;;1.08;0.80;;;19.30;52.70;;;;;;5033837;28;20025;-70
2024/01/08 04:51:02;;;;;;;1.15;0.90;;;19.40;52.80;;;;;;5035147;28;20033;-70
2024/01/08 04:53:27;;;;;;;1.00;0.80;;;19.30;52.70;;;;;;5040037;28;20037;-69
2024/01/08 04:55:53;;;;;;;1.20;0.70;;;19.30;52.70;;;;;;5037965;28;20583;-69
2024/01/08 04:58:19;;;;;;;1.17;0.80;;;19.30;52.70;;;;;;5038532;28;20030;-69
2024/01/08 05:00:44;;;;;;;0.90;0.70;;;19.30;52.70;;;;;;5037632;28;20052;-69
2024/01/08 05:03:13;;;;;;;0.60;0.60;;;19.30;52.70;;;;;;5035732;28;20029;-67
2024/01/08 05:05:38;;;;;;;1.00;0.65;;;19.30;52.70;;;;;;5039471;28;20090;-67
2024/01/08 05:08:05;;;;;;;0.88;0.70;;;19.30;52.60;;;;;;5036322;28;20367;-67
2024/01/08 05:10:30;;;;;;;0.70;0.60;;;19.30;52.60;;;;;;5039896;28;20060;-66
2024/01/08 05:12:56;;;;;;;1.10;0.77;;;19.30;52.60;;;;;;5039060;28;20437;-67
2024/01/08 05:15:21;;;;;;;0.65;0.60;;;19.30;52.60;;;;;;5038695;28;20032;-66
2024/01/08 05:17:47;;;;;;;1.10;0.70;;;19.30;52.60;;;;;;5036580;28;20055;-66
2024/01/08 05:20:13;;;;;;;1.38;0.80;;;19.30;52.60;;;;;;5037343;28;20108;-66
2024/01/08 05:22:38;;;;;;;0.88;0.70;;;19.30;53.20;;;;;;5037875;28;20026;-67
2024/01/08 05:25:04;;;;;;;0.90;0.70;;;19.30;52.60;;;;;;5037511;28;20048;-66
2024/01/08 05:27:29;;;;;;;0.82;0.63;;;19.30;52.70;;;;;;5036996;28;20083;-66
2024/01/08 05:29:55;;;;;;;1.50;0.90;;;19.30;52.70;;;;;;5038318;28;20063;-66
2024/01/08 05:32:20;;;;;;;1.00;0.75;;;19.30;52.70;;;;;;5037047;28;20036;-65
2024/01/08 05:34:46;;;;;;;0.90;0.63;;;19.30;52.70;;;;;;5036730;28;20546;-65
2024/01/08 05:37:12;;;;;;;1.20;0.70;;;19.30;52.70;;;;;;5038444;28;20025;-66
2024/01/08 05:39:37;;;;;;;1.10;0.80;;;19.30;52.80;;;;;;5036425;28;20029;-66
2024/01/08 05:42:03;;;;;;;0.88;0.70;;;19.30;52.70;;;;;;5037208;28;20735;-65
2024/01/08 05:44:29;;;;;;;1.05;0.80;;;19.30;52.80;;;;;;5039107;28;20085;-66
2024/01/08 05:46:54;;;;;;;1.23;0.80;;;19.30;52.80;;;;;;5040444;28;20033;-66
2024/01/08 05:49:20;;;;;;;1.35;0.80;;;19.30;52.80;;;;;;5036506;28;20803;-66
2024/01/08 05:51:45;;;;;;;0.93;0.70;;;19.30;52.80;;;;;;5040469;28;20044;-66
2024/01/08 05:54:11;;;;;;;0.82;0.80;;;19.30;52.90;;;;;;5043424;28;20461;-66
2024/01/08 05:56:37;;;;;;;1.13;0.70;;;19.30;52.90;;;;;;5042132;28;20496;-66
2024/01/08 05:59:03;;;;;;;1.67;0.80;;;19.30;52.90;;;;;;5039333;28;20104;-66
2024/01/08 06:01:29;;;;;;;0.73;0.60;;;19.30;52.90;;;;;;5041312;28;20025;-66
2024/01/08 06:03:54;;;;;;;1.65;0.70;;;19.20;53.00;;;;;;5039730;28;20058;-66
2024/01/08 06:06:20;;;;;;;0.98;0.75;;;19.30;53.00;;;;;;5039638;28;20599;-66
2024/01/08 06:08:46;;;;;;;1.17;0.70;;;19.20;53.00;;;;;;5040212;28;20575;-66
2024/01/08 06:11:12;;;;;;;0.90;0.70;;;19.20;53.00;;;;;;5038745;28;20064;-66
2024/01/08 06:13:37;;;;;;;1.45;0.77;;;19.30;53.10;;;;;;5044055;28;20094;-64
2024/01/08 06:16:03;;;;;;;2.15;0.70;;;19.30;53.10;;;;;;5041525;28;20513;-64
2024/01/08 06:18:31;;;;;;;1.33;0.68;;;19.20;53.00;;;;;;5039519;28;20033;-67
2024/01/08 06:20:57;;;;;;;1.45;0.90;;;19.30;53.70;;;;;;5039987;28;20031;-64
2024/01/08 06:23:23;;;;;;;0.75;0.70;;;19.20;53.10;;;;;;5041336;28;20535;-63
2024/01/08 06:25:48;;;;;;;0.80;0.70;;;19.20;53.20;;;;;;5040937;28;20068;-64
2024/01/08 06:28:14;;;;;;;1.10;0.77;;;19.20;53.20;;;;;;5039181;28;20021;-63
2024/01/08 06:30:40;;;;;;;1.35;0.88;;;19.20;53.20;;;;;;5041180;28;20022;-64
2024/01/08 06:33:06;;;;;;;0.65;0.52;;;19.20;53.20;;;;;;5037484;28;20502;-63
2024/01/08 06:35:32;;;;;;;1.23;0.70;;;19.20;53.20;;;;;;5041809;28;20115;-63
2024/01/08 06:37:57;;;;;;;2.08;0.90;;;19.20;53.90;;;;;;5041935;28;20353;-63
2024/01/08 06:40:23;;;;;;;1.48;0.80;;;19.30;54.50;;;;;;5039688;28;20147;-64
2024/01/08 06:42:48;;;;;;;1.48;0.90;;;19.50;54.60;;;;;;5042880;28;20502;-64
2024/01/08 06:45:14;;;;;;;1.77;1.08;;;19.60;53.90;;;;;;5039222;28;20060;-64
2024/01/08 06:47:40;;;;;;;2.90;1.38;;;19.80;53.60;;;;;;5042186;28;20409;-64
2024/01/08 06:50:05;;;;;;;3.13;1.40;;;19.90;53.40;;;;;;5038390;28;20159;-64
2024/01/08 06:52:31;;;;;;;1.67;1.00;;;20.10;53.30;;;;;;5041798;28;20045;-63
2024/01/08 06:54:57;;;;;;;2.67;1.10;;;20.20;53.10;;;;;;5041376;28;20036;-66
2024/01/08 06:57:23;;;;;;;1.70;0.98;;;20.40;52.80;;;;;;5040221;28;20057;-66
2024/01/08 06:59:49;;;;;;;1.70;1.00;;;20.60;52.30;;;;;;5039378;28;20028;-66
2024/01/08 07:02:15;;;;;;;2.38;1.00;;;20.80;51.80;;;;;;5037493;28;20032;-66
2024/01/08 07:04:41;;;;;;;3.42;1.45;;;20.90;51.50;;;;;;5038848;28;20355;-67
2024/01/08 07:07:06;;;;;;;1.67;1.00;;;21.10;51.10;;;;;;5040910;28;20030;-66
2024/01/08 07:09:32;;;;;;;2.83;1.00;;;21.30;50.90;;;;;;5040933;28;20059;-67
2024/01/08 07:11:59;;;;;;;2.30;0.85;;;21.30;50.70;;;;;;5038884;28;20431;-70
2024/01/08 07:14:24;;;;;;;2.08;1.00;;;21.30;50.60;;;;;;5042134;28;20026;-66
2024/01/08 07:16:51;;;;;;;1.70;0.98;;;21.40;50.70;;;;;;5040364;28;20028;-66
2024/01/08 07:19:16;;;;;;;1.98;0.82;;;21.60;50.40;;;;;;5039204;28;20097;-66
2024/01/08 07:21:42;;;;;;;1.83;0.90;;;21.80;50.20;;;;;;5040659;28;20025;-66
2024/01/08 07:24:08;;;;;;;2.67;0.98;;;21.90;50.50;;;;;;5037914;28;20025;-67
2024/01/08 07:26:33;;;;;;;2.05;0.82;;;22.00;49.80;;;;;;5037447;28;20481;-67
2024/01/08 07:28:59;;;;;;;2.22;1.00;;;22.10;49.60;;;;;;5039133;28;20021;-67
2024/01/08 07:31:25;;;;;;;3.33;0.90;;;22.10;49.70;;;;;;5038372;28;20030;-67
2024/01/08 07:33:51;;;;;;;1.60;0.93;;;22.20;49.60;;;;;;5037245;28;20116;-67
2024/01/08 07:36:16;;;;;;;1.67;0.85;;;22.30;49.70;;;;;;5040480;28;20458;-67
2024/01/08 07:38:42;;;;;;;2.40;1.05;;;22.30;49.80;;;;;;5037689;28;20446;-68
2024/01/08 07:41:19;;;;;;;1.60;0.70;;;22.20;49.50;;;;;;5039095;28;20032;-68
2024/01/08 07:43:45;;;;;;;1.80;0.85;;;22.10;49.80;;;;;;5040158;28;20032;-67
2024/01/08 07:46:10;;;;;;;2.38;1.30;;;21.90;50.00;;;;;;5042193;28;20113;-67
2024/01/08 07:48:36;;;;;;;1.85;1.00;;;21.80;49.80;;;;;;5037330;28;20484;-67
2024/01/08 07:51:02;;;;;;;2.60;1.10;;;21.80;49.40;;;;;;5040519;28;20033;-67
2024/01/08 07:53:27;;;;;;;1.58;1.00;;;21.80;49.30;;;;;;5031659;28;20041;-67
2024/01/08 07:55:53;;;;;;;1.98;0.90;;;21.70;49.50;;;;;;5039075;28;20214;-67
2024/01/08 07:58:19;;;;;;;1.60;0.90;;;21.70;50.00;;;;;;5037196;28;20121;-66
2024/01/08 08:00:44;;;;;;;0.95;0.70;;;21.60;50.40;;;;;;5038064;28;20436;-66
2024/01/08 08:03:10;;;;;;;1.80;0.90;;;21.70;50.90;;;;;;5039638;28;20482;-67
2024/01/08 08:05:38;;;;;;;1.50;0.70;;;21.60;51.10;;;;;;5037389;28;20017;-66
2024/01/08 08:08:04;;;;;;;2.67;0.80;;;21.70;51.50;;;;;;5036954;28;20076;-66
2024/01/08 08:10:30;;;;;;;1.80;0.80;;;21.70;51.90;;;;;;5038317;28;20044;-66
2024/01/08 08:12:55;;;;;;;2.35;0.90;;;21.70;52.30;;;;;;5038461;28;20025;-66
2024/01/08 08:15:21;;;;;;;2.83;1.00;;;21.70;52.60;;;;;;5039681;28;20033;-62
2024/01/08 08:17:47;;;;;;;1.42;0.85;;;21.70;53.00;;;;;;5038128;28;20029;-64
2024/01/08 08:20:13;;;;;;;2.05;1.00;;;21.70;53.40;;;;;;5036615;28;20037;-62
2024/01/08 08:22:38;;;;;;;2.35;1.08;;;21.70;53.40;;;;;;5040686;28;20036;-64
2024/01/08 08:25:04;;;;;;;1.58;0.90;;;21.70;51.00;;;;;;5039158;28;20029;-64
2024/01/08 08:27:32;;;;;;;1.55;0.90;;;21.70;50.20;;;;;;5037872;28;20509;-63
2024/01/08 08:29:58;;;;;;;2.25;0.90;;;21.70;49.90;;;;;;5038091;28;20458;-63
2024/01/08 08:32:23;;;;;;;1.50;1.00;;;21.70;49.90;;;;;;5040408;28;20052;-63
2024/01/08 08:34:49;;;;;;;2.20;1.00;;;21.60;49.70;;;;;;5036443;28;20507;-66
2024/01/08 08:37:14;;;;;;;2.40;0.98;;;21.60;49.70;;;;;;5038485;28;20484;-66
2024/01/08 08:39:40;;;;;;;2.15;0.90;;;21.50;49.60;;;;;;5036054;28;20024;-66
2024/01/08 08:42:07;;;;;;;2.17;1.02;;;21.50;50.10;;;;;;5036810;28;20555;-66
2024/01/08 08:44:34;;;;;;;1.40;0.80;;;21.50;49.60;;;;;;5037248;28;20029;-66
2024/01/08 08:47:00;;;;;;;2.05;0.90;;;21.40;49.40;;;;;;5039038;28;20022;-66
2024/01/08 08:49:26;;;;;;;2.10;0.93;;;21.40;49.50;;;;;;5035725;28;20021;-66
2024/01/08 08:51:52;;;;;;;2.05;1.10;;;21.40;49.40;;;;;;5038368;28;20507;-66
2024/01/08 08:54:17;;;;;;;1.42;0.80;;;21.30;49.40;;;;;;5041503;28;20481;-66
2024/01/08 08:56:43;;;;;;;2.25;0.82;;;21.30;49.60;;;;;;5037498;28;20028;-66
2024/01/08 08:59:09;;;;;;;2.47;1.17;;;21.30;49.60;;;;;;5036286;28;20032;-66
2024/01/08 09:01:35;;;;;;;1.85;1.00;;;21.30;49.70;;;;;;5039013;28;20030;-66
2024/01/08 09:04:01;;;;;;;2.15;1.00;;;21.20;49.60;;;;;;5036817;28;20064;-67
2024/01/08 09:06:30;;;;;;;2.58;1.20;;;21.20;49.50;;;;;;5039547;28;20025;-66
2024/01/08 09:08:56;;;;;;;1.75;1.02;;;21.20;49.50;;;;;;5039620;28;20366;-65
2024/01/08 09:11:25;;;;;;;2.35;1.08;;;21.20;49.60;;;;;;5035720;28;20527;-66
2024/01/08 09:13:51;;;;;;;3.10;1.00;;;21.20;49.70;;;;;;5039019;28;20124;-67
2024/01/08 09:16:18;;;;;;;2.35;1.00;;;21.10;49.50;;;;;;5037095;28;20033;-66
2024/01/08 09:18:45;;;;;;;3.15;1.38;;;21.10;49.70;;;;;;5038496;28;20120;-66
2024/01/08 09:21:11;;;;;;;2.67;1.15;;;21.10;49.70;;;;;;5034867;28;20493;-67
2024/01/08 09:23:40;;;;;;;2.50;1.08;;;21.00;49.60;;;;;;5034974;28;20029;-65
2024/01/08 09:26:06;;;;;;;3.20;1.15;;;21.00;49.60;;;;;;5037561;28;20447;-65
2024/01/08 09:28:32;;;;;;;3.72;1.27;;;21.00;49.60;;;;;;5038599;28;20025;-65
2024/01/08 09:31:01;;;;;;;2.35;1.10;;;21.00;49.60;;;;;;5035788;28;20488;-65
2024/01/08 09:33:27;;;;;;;2.20;1.02;;;21.00;49.70;;;;;;5038264;28;20036;-65
2024/01/08 09:35:52;;;;;;;3.03;1.27;;;20.90;49.60;;;;;;5035202;28;20374;-65
2024/01/08 09:38:18;;;;;;;2.88;1.35;;;20.90;49.70;;;;;;5039726;28;20032;-65
2024/01/08 09:40:44;;;;;;;3.45;1.52;;;20.80;50.10;;;;;;5037833;28;20030;-65
2024/01/08 09:43:14;;;;;;;2.95;1.23;;;20.80;49.70;;;;;;5037755;28;20033;-65
2024/01/08 09:45:58;;;;;;;3.50;1.30;;;20.80;49.70;;;;;;5034051;28;20022;-66
2024/01/08 09:48:24;;;;;;;2.40;1.30;;;20.80;49.70;;;;;;5033664;28;20053;-66
2024/01/08 09:50:51;;;;;;;3.80;1.40;;;20.70;49.70;;;;;;5035200;28;20056;-66
2024/01/08 09:53:17;;;;;;;3.10;1.38;;;20.70;49.70;;;;;;5035760;28;20060;-67
2024/01/08 09:55:44;;;;;;;2.72;1.23;;;20.70;49.70;;;;;;5037105;28;20476;-67
2024/01/08 09:58:10;;;;;;;2.17;1.10;;;20.70;49.70;;;;;;5040834;28;20033;-66
2024/01/08 10:00:35;;;;;;;4.45;1.30;;;20.70;49.70;;;;;;5037648;28;20029;-66
2024/01/08 10:03:01;;;;;;;2.85;1.25;;;20.70;49.80;;;;;;5037549;28;20494;-66
2024/01/08 10:05:30;;;;;;;3.35;1.35;;;20.70;49.80;;;;;;5033810;28;20021;-66
2024/01/08 10:08:00;;;;;;;2.90;1.30;;;20.60;49.80;;;;;;5036577;28;20027;-67
2024/01/08 10:10:26;;;;;;;;;;;20.60;49.80;;;;;;5035193;28;20048;-67
2024/01/08 10:12:53;;;;;;;2.58;1.20;;;20.60;49.80;;;;;;5035693;28;19908;-66
2024/01/08 10:15:19;;;;;;;3.38;1.30;;;20.60;49.80;;;;;;5039979;28;20029;-67
2024/01/08 10:17:49;;;;;;;3.35;1.20;;;20.60;49.80;;;;;;5037766;28;20099;-66
2024/01/08 10:20:15;;;;;;;3.65;1.33;;;20.50;50.30;;;;;;5037295;28;20112;-66
2024/01/08 10:22:42;;;;;;;3.42;1.38;;;20.50;49.80;;;;;;5033797;28;20496;-67
2024/01/08 10:25:08;;;;;;;2.78;1.30;;;20.50;49.90;;;;;;5036977;28;20097;-66
2024/01/08 10:27:34;;;;;;;2.22;1.20;;;20.50;49.90;;;;;;5037398;28;20045;-66
2024/01/08 10:30:00;;;;;;;2.45;1.10;;;20.40;49.90;;;;;;5037422;28;20093;-66
2024/01/08 10:32:25;;;;;;;2.35;1.45;;;20.40;50.40;;;;;;5037324;28;20831;-66
2024/01/08 10:34:51;;;;;;;2.92;1.20;;;20.40;50.00;;;;;;5031665;28;20045;-67
2024/01/08 10:37:18;;;;;;;2.97;1.30;;;20.40;50.00;;;;;;5039462;28;20029;-66
2024/01/08 10:39:47;;;;;;;2.33;1.15;;;20.40;50.00;;;;;;5040398;28;20037;-67
2024/01/08 10:42:13;;;;;;;2.17;1.15;;;20.30;50.00;;;;;;5036070;28;20548;-66
2024/01/08 10:44:39;;;;;;;3.33;1.13;;;20.30;50.00;;;;;;5035782;28;20029;-67
2024/01/08 10:47:19;;;;;;;3.35;1.27;;;20.30;50.00;;;;;;5042295;28;20028;-67
2024/01/08 10:49:55;;;;;;;2.47;1.38;;;20.30;50.00;;;;;;5041567;28;20105;-67
2024/01/08 10:52:24;;;;;;;2.00;1.27;;;20.30;50.10;;;;;;5040497;28;20028;-67
2024/01/08 10:54:57;;;;;;;2.60;1.20;;;20.30;50.10;;;;;;5040934;28;20033;-65
2024/01/08 10:57:34;;;;;;;3.80;1.27;;;20.20;50.10;;;;;;5043116;28;20041;-65
2024/01/08 11:00:01;;;;;;;2.95;1.20;;;20.20;50.10;;;;;;5036138;28;20060;-65
2024/01/08 11:02:27;;;;;;;2.33;1.10;;;20.20;50.10;;;;;;5040920;28;20484;-65
2024/01/08 11:05:01;;;;;;;2.80;1.20;;;20.20;50.10;;;;;;5040782;28;20026;-65
2024/01/08 11:07:28;;;;;;;2.45;1.20;;;20.20;50.10;;;;;;5041132;28;20089;-65
2024/01/08 11:10:03;;;;;;;2.45;1.20;;;20.20;50.20;;;;;;5039280;28;20024;-65
2024/01/08 11:12:29;;;;;;;3.03;1.38;;;20.20;50.20;;;;;;5039869;28;20040;-65
2024/01/08 11:15:04;;;;;;;2.28;1.17;;;20.10;50.10;;;;;;5041241;28;20562;-65
2024/01/08 11:17:30;;;;;;;2.50;1.33;;;20.10;50.20;;;;;;5039880;28;20914;-66
2024/01/08 11:19:58;;;;;;;2.13;1.30;;;20.10;50.20;;;;;;5041037;28;20025;-65
2024/01/08 11:22:24;;;;;;;2.65;1.25;;;20.10;50.20;;;;;;5040376;28;20481;-65
2024/01/08 11:24:49;;;;;;;2.10;1.00;;;20.10;50.20;;;;;;5042064;28;20032;-65
2024/01/08 11:27:16;;;;;;;2.47;1.30;;;20.10;50.30;;;;;;5040351;28;20334;-65
2024/01/08 11:29:45;;;;;;;2.58;1.20;;;20.10;50.30;;;;;;5040525;28;20032;-65
2024/01/08 11:32:17;;;;;;;1.92;1.10;;;20.00;50.20;;;;;;5040506;28;20070;-65
2024/01/08 11:34:46;;;;;;;2.10;1.05;;;20.00;50.30;;;;;;5039622;28;20022;-63
2024/01/08 11:37:11;;;;;;;2.80;1.10;;;20.00;50.30;;;;;;5038913;28;20028;-63
2024/01/08 11:39:39;;;;;;;2.42;1.40;;;20.00;50.30;;;;;;5041132;28;20020;-63
2024/01/08 11:42:06;;;;;;;2.20;1.10;;;20.00;50.30;;;;;;5040258;28;20124;-63
2024/01/08 11:44:32;;;;;;;2.22;1.20;;;20.00;50.30;;;;;;5037392;28;20382;-65
2024/01/08 11:46:59;;;;;;;2.22;1.23;;;20.00;50.30;;;;;;5041479;28;20029;-65
2024/01/08 11:49:24;;;;;;;2.53;1.23;;;19.90;50.30;;;;;;5040033;28;20034;-66
2024/01/08 11:51:55;;;;;;;2.78;1.58;;;19.90;50.30;;;;;;5035832;28;20083;-65
2024/01/08 11:54:20;;;;;;;1.83;1.10;;;19.90;50.30;;;;;;5038722;28;20033;-65
2024/01/08 11:56:46;;;;;;;1.60;1.00;;;19.90;50.40;;;;;;5036834;28;20470;-66
2024/01/08 11:59:11;;;;;;;2.08;1.10;;;19.90;50.40;;;;;;5038721;28;20067;-66
2024/01/08 12:01:37;;;;;;;2.30;1.30;;;19.90;50.40;;;;;;5039691;28;20377;-66
2024/01/08 12:04:04;;;;;;;2.13;1.10;;;19.90;50.40;;;;;;5038985;28;20078;-66
2024/01/08 12:06:30;;;;;;;2.08;1.20;;;19.90;50.40;;;;;;5036212;28;20076;-66
2024/01/08 12:08:56;;;;;;;2.88;1.20;;;19.90;50.40;;;;;;5039074;28;20025;-66
2024/01/08 12:11:25;;;;;;;2.38;1.30;;;19.80;50.40;;;;;;5039621;28;20615;-66
2024/01/08 12:13:54;;;;;;;2.00;1.00;;;19.80;50.90;;;;;;5038864;28;20029;-65
2024/01/08 12:16:22;;;;;;;1.95;1.08;;;19.80;50.40;;;;;;5037959;28;20033;-66
2024/01/08 12:18:49;;;;;;;2.03;1.00;;;19.80;50.40;;;;;;5039907;28;20374;-66
2024/01/08 12:21:14;;;;;;;1.98;1.20;;;19.80;50.50;;;;;;5038778;28;20322;-65
2024/01/08 12:23:40;;;;;;;2.28;1.10;;;19.80;50.50;;;;;;5038609;28;20104;-66
2024/01/08 12:26:06;;;;;;;2.05;1.10;;;19.80;50.50;;;;;;5036599;28;20024;-66
2024/01/08 12:28:33;;;;;;;1.95;1.08;;;19.80;50.50;;;;;;5037977;28;20029;-66
2024/01/08 12:30:59;;;;;;;1.33;0.90;;;19.70;50.50;;;;;;5039081;28;20033;-66
2024/01/08 12:33:25;;;;;;;1.95;1.10;;;19.80;50.50;;;;;;5040423;28;20048;-66
2024/01/08 12:35:58;;;;;;;1.65;1.10;;;19.80;50.50;;;;;;5036637;28;20112;-66
2024/01/08 12:38:23;;;;;;;1.48;1.05;;;19.70;50.50;;;;;;5038346;28;20025;-66
2024/01/08 12:40:53;;;;;;;1.70;1.00;;;19.70;50.60;;;;;;5039954;28;20048;-66
2024/01/08 12:43:19;;;;;;;2.03;1.17;;;19.70;50.60;;;;;;5037731;28;20182;-66